createdAt,value
2017-08-27T00:01:39.943Z,17.80
2017-08-27T00:04:07.427Z,17.80
2017-08-27T00:06:34.891Z,17.90
2017-08-27T00:09:02.483Z,17.90
2017-08-27T00:11:29.951Z,18.00
2017-08-27T00:13:57.431Z,18.00
2017-08-27T00:16:24.892Z,18.10
2017-08-27T00:18:52.364Z,18.10
2017-08-27T00:21:19.867Z,18.10
2017-08-27T00:23:47.346Z,18.10
2017-08-27T00:26:14.807Z,18.10
2017-08-27T00:28:42.268Z,18.20
2017-08-27T00:31:09.759Z,18.10
2017-08-27T00:33:37.218Z,18.10
2017-08-27T00:36:04.696Z,18.10
2017-08-27T00:38:32.170Z,18.20
2017-08-27T00:40:59.647Z,18.10
2017-08-27T00:43:27.106Z,18.10
2017-08-27T00:45:54.595Z,18.10
2017-08-27T00:48:22.088Z,18.10
2017-08-27T00:50:49.554Z,18.10
2017-08-27T00:53:17.030Z,18.10
2017-08-27T00:55:44.499Z,18.10
2017-08-27T00:58:11.971Z,18.10
2017-08-27T01:00:39.437Z,18.10
2017-08-27T01:03:07.674Z,18.20
2017-08-27T01:05:35.135Z,18.20
2017-08-27T01:08:02.643Z,18.10
2017-08-27T01:10:30.115Z,18.10
2017-08-27T01:12:57.585Z,18.10
2017-08-27T01:15:25.063Z,18.10
2017-08-27T01:17:52.527Z,18.10
2017-08-27T01:20:20.002Z,18.20
2017-08-27T01:22:47.466Z,18.20
2017-08-27T01:25:14.935Z,18.30
2017-08-27T01:27:42.422Z,18.30
2017-08-27T01:30:09.895Z,18.30
2017-08-27T01:32:37.362Z,18.30
2017-08-27T01:35:04.828Z,18.20
2017-08-27T01:37:32.286Z,18.20
2017-08-27T01:39:59.776Z,18.20
2017-08-27T01:42:27.249Z,18.20
2017-08-27T01:44:54.722Z,18.20
2017-08-27T01:47:22.194Z,18.20
2017-08-27T01:49:49.655Z,18.20
2017-08-27T01:52:17.135Z,18.10
2017-08-27T01:54:44.636Z,18.10
2017-08-27T01:57:12.122Z,17.90
2017-08-27T01:59:39.586Z,17.80
2017-08-27T02:02:07.064Z,17.80
2017-08-27T02:04:34.539Z,17.70
2017-08-27T02:07:02.003Z,17.80
2017-08-27T02:09:29.482Z,17.80
2017-08-27T02:11:56.949Z,17.80
2017-08-27T02:14:24.427Z,17.80
2017-08-27T02:16:51.891Z,17.70
2017-08-27T02:19:19.354Z,17.70
2017-08-27T02:21:46.835Z,17.70
2017-08-27T02:24:14.302Z,17.70
2017-08-27T02:26:41.783Z,17.70
2017-08-27T02:29:09.246Z,17.70
2017-08-27T02:31:36.731Z,17.60
2017-08-27T02:34:04.203Z,17.60
2017-08-27T02:36:31.695Z,17.50
2017-08-27T02:38:59.170Z,17.50
2017-08-27T02:41:26.632Z,17.50
2017-08-27T02:43:54.094Z,17.50
2017-08-27T02:46:21.595Z,17.50
2017-08-27T02:48:49.059Z,17.50
2017-08-27T02:51:16.540Z,17.50
2017-08-27T02:53:44.007Z,17.50
2017-08-27T02:56:11.478Z,17.50
2017-08-27T02:58:38.959Z,17.60
2017-08-27T03:01:06.422Z,17.60
2017-08-27T03:03:33.918Z,17.60
2017-08-27T03:06:01.373Z,17.60
2017-08-27T03:08:28.933Z,17.60
2017-08-27T03:10:56.400Z,17.60
2017-08-27T03:13:23.880Z,17.60
2017-08-27T03:15:51.355Z,17.60
2017-08-27T03:18:18.818Z,17.50
2017-08-27T03:20:46.286Z,17.40
2017-08-27T03:23:13.779Z,17.40
2017-08-27T03:25:41.250Z,17.30
2017-08-27T03:28:08.733Z,17.30
2017-08-27T03:30:36.199Z,17.20
2017-08-27T03:33:03.678Z,17.10
2017-08-27T03:35:31.167Z,17.10
2017-08-27T03:37:58.635Z,17.10
2017-08-27T03:40:26.124Z,17.10
2017-08-27T03:42:53.582Z,17.00
2017-08-27T03:45:21.071Z,17.00
2017-08-27T03:47:48.539Z,16.90
2017-08-27T03:50:16.003Z,16.90
2017-08-27T03:52:43.487Z,16.80
2017-08-27T03:55:10.978Z,16.80
2017-08-27T03:57:39.222Z,16.70
2017-08-27T04:00:06.703Z,16.70
2017-08-27T04:02:34.183Z,16.80
2017-08-27T04:05:01.659Z,16.70
2017-08-27T04:07:29.138Z,16.70
2017-08-27T04:09:56.615Z,16.70
2017-08-27T04:12:24.092Z,16.60
2017-08-27T04:14:51.583Z,16.50
2017-08-27T04:17:19.047Z,16.50
2017-08-27T04:19:46.531Z,16.40
2017-08-27T04:22:14.017Z,16.20
2017-08-27T04:24:41.611Z,16.20
2017-08-27T04:27:09.169Z,16.10
2017-08-27T04:29:36.643Z,16.00
2017-08-27T04:32:04.123Z,16.00
2017-08-27T04:34:31.594Z,15.90
2017-08-27T04:36:59.062Z,16.00
2017-08-27T04:39:26.559Z,16.00
2017-08-27T04:41:54.039Z,16.00
2017-08-27T04:44:21.508Z,16.00
2017-08-27T04:46:48.987Z,16.00
2017-08-27T04:49:16.454Z,16.10
2017-08-27T04:51:43.939Z,16.20
2017-08-27T04:54:11.407Z,16.20
2017-08-27T04:56:38.882Z,16.20
2017-08-27T04:59:06.351Z,16.20
2017-08-27T05:01:33.851Z,16.20
2017-08-27T05:04:01.322Z,16.20
2017-08-27T05:06:28.814Z,16.20
2017-08-27T05:08:56.279Z,16.20
2017-08-27T05:11:23.743Z,16.30
2017-08-27T05:13:51.234Z,16.30
2017-08-27T05:16:18.703Z,16.30
2017-08-27T05:18:46.166Z,16.40
2017-08-27T05:21:13.650Z,16.40
2017-08-27T05:23:41.139Z,16.50
2017-08-27T05:26:08.733Z,16.50
2017-08-27T05:28:36.218Z,16.50
2017-08-27T05:31:03.693Z,16.60
2017-08-27T05:33:31.172Z,16.70
2017-08-27T05:35:58.635Z,16.80
2017-08-27T05:38:26.120Z,16.80
2017-08-27T05:40:53.598Z,17.00
2017-08-27T05:43:21.064Z,17.10
2017-08-27T05:45:48.525Z,17.20
2017-08-27T05:48:16.004Z,17.30
2017-08-27T05:50:43.471Z,17.50
2017-08-27T05:53:11.058Z,17.60
2017-08-27T05:55:38.616Z,17.70
2017-08-27T05:58:06.094Z,17.80
2017-08-27T06:00:33.555Z,17.90
2017-08-27T06:03:01.014Z,18.00
2017-08-27T06:05:28.493Z,18.00
2017-08-27T06:07:55.949Z,18.00
2017-08-27T06:10:23.420Z,18.10
2017-08-27T06:12:50.887Z,18.20
2017-08-27T06:15:18.364Z,18.30
2017-08-27T06:17:45.853Z,18.30
2017-08-27T06:20:13.384Z,18.30
2017-08-27T06:22:40.851Z,18.40
2017-08-27T06:25:08.331Z,18.40
2017-08-27T06:27:35.792Z,18.40
2017-08-27T06:30:03.270Z,18.50
2017-08-27T06:32:30.766Z,18.60
2017-08-27T06:34:58.229Z,18.70
2017-08-27T06:37:25.688Z,18.80
2017-08-27T06:39:53.170Z,18.90
2017-08-27T06:42:20.626Z,19.00
2017-08-27T06:44:48.087Z,19.00
2017-08-27T06:47:15.566Z,19.00
2017-08-27T06:49:43.049Z,19.00
2017-08-27T06:52:10.520Z,19.10
2017-08-27T06:54:38.002Z,19.20
2017-08-27T06:57:05.464Z,19.30
2017-08-27T06:59:33.874Z,19.50
2017-08-27T07:02:02.119Z,19.70
2017-08-27T07:04:29.583Z,19.70
2017-08-27T07:06:57.070Z,20.10
2017-08-27T07:09:24.660Z,20.30
2017-08-27T07:11:52.217Z,20.30
2017-08-27T07:14:19.687Z,20.10
2017-08-27T07:16:47.151Z,19.90
2017-08-27T07:19:14.634Z,19.90
2017-08-27T07:21:42.103Z,19.80
2017-08-27T07:24:09.562Z,19.80
2017-08-27T07:26:37.050Z,19.90
2017-08-27T07:29:04.512Z,20.10
2017-08-27T07:31:31.987Z,20.30
2017-08-27T07:33:59.446Z,20.40
2017-08-27T07:36:26.930Z,20.60
2017-08-27T07:38:54.402Z,20.80
2017-08-27T07:41:21.903Z,20.90
2017-08-27T07:43:50.101Z,20.90
2017-08-27T07:46:17.627Z,21.00
2017-08-27T07:48:45.090Z,21.00
2017-08-27T07:51:12.570Z,21.10
2017-08-27T07:53:40.038Z,21.10
2017-08-27T07:56:07.503Z,21.10
2017-08-27T07:58:34.979Z,21.20
2017-08-27T08:01:02.468Z,21.20
2017-08-27T08:03:29.955Z,21.10
2017-08-27T08:05:57.424Z,21.20
2017-08-27T08:08:24.901Z,21.20
2017-08-27T08:10:52.365Z,21.30
2017-08-27T08:13:19.835Z,21.30
2017-08-27T08:15:47.311Z,21.40
2017-08-27T08:18:14.790Z,21.60
2017-08-27T08:20:42.284Z,21.80
2017-08-27T08:23:09.742Z,22.20
2017-08-27T08:25:37.233Z,22.30
2017-08-27T08:28:04.708Z,22.30
2017-08-27T08:30:32.173Z,22.40
2017-08-27T08:32:59.658Z,22.10
2017-08-27T08:35:27.139Z,22.10
2017-08-27T08:37:54.618Z,22.20
2017-08-27T08:40:22.087Z,22.40
2017-08-27T08:42:49.553Z,22.40
2017-08-27T08:45:17.028Z,22.50
2017-08-27T08:47:44.502Z,22.30
2017-08-27T08:50:11.967Z,22.30
2017-08-27T08:52:40.214Z,22.20
2017-08-27T08:55:07.694Z,22.10
2017-08-27T08:57:35.173Z,22.30
2017-08-27T09:00:02.658Z,22.30
2017-08-27T09:02:30.124Z,22.30
2017-08-27T09:04:57.603Z,22.50
2017-08-27T09:07:25.065Z,22.60
2017-08-27T09:09:52.529Z,22.70
2017-08-27T09:12:19.999Z,22.60
2017-08-27T09:14:47.464Z,22.60
2017-08-27T09:17:14.951Z,22.70
2017-08-27T09:19:42.422Z,22.70
2017-08-27T09:22:09.899Z,22.70
2017-08-27T09:24:37.358Z,22.90
2017-08-27T09:27:04.868Z,23.10
2017-08-27T09:29:32.425Z,22.90
2017-08-27T09:31:59.888Z,23.10
2017-08-27T09:34:27.375Z,23.30
2017-08-27T09:36:54.847Z,23.40
2017-08-27T09:39:22.327Z,23.30
2017-08-27T09:41:49.793Z,23.40
2017-08-27T09:44:17.276Z,23.60
2017-08-27T09:46:44.757Z,23.70
2017-08-27T09:49:12.219Z,23.80
2017-08-27T09:51:39.686Z,23.50
2017-08-27T09:54:07.148Z,23.60
2017-08-27T09:56:34.625Z,23.50
2017-08-27T09:59:02.106Z,23.80
2017-08-27T10:01:29.567Z,24.70
2017-08-27T10:03:57.043Z,26.00
2017-08-27T10:06:24.499Z,27.30
2017-08-27T10:08:51.999Z,28.30
2017-08-27T10:11:20.215Z,30.30
2017-08-27T10:13:47.687Z,30.30
2017-08-27T10:16:15.150Z,30.50
2017-08-27T10:18:42.619Z,30.10
2017-08-27T10:21:10.123Z,29.90
2017-08-27T10:23:37.587Z,29.90
2017-08-27T10:26:05.053Z,30.70
2017-08-27T10:28:32.519Z,30.90
2017-08-27T10:30:59.984Z,31.40
2017-08-27T10:33:27.453Z,32.20
2017-08-27T10:35:54.920Z,32.70
2017-08-27T10:38:22.383Z,32.10
2017-08-27T10:40:49.831Z,32.70
2017-08-27T10:43:17.303Z,32.30
2017-08-27T10:45:44.770Z,32.20
2017-08-27T10:48:13.010Z,31.70
2017-08-27T10:50:40.483Z,31.70
2017-08-27T10:53:07.960Z,32.20
2017-08-27T10:55:35.419Z,32.50
2017-08-27T10:58:02.902Z,33.00
2017-08-27T11:00:30.354Z,33.40
2017-08-27T11:02:57.831Z,33.50
2017-08-27T11:05:25.331Z,33.60
2017-08-27T11:07:52.753Z,33.00
2017-08-27T11:10:20.228Z,32.10
2017-08-27T11:12:47.691Z,32.00
2017-08-27T11:15:15.158Z,32.50
2017-08-27T11:17:42.628Z,32.40
2017-08-27T11:20:10.080Z,32.50
2017-08-27T11:22:37.551Z,33.10
2017-08-27T11:25:05.035Z,33.70
2017-08-27T11:27:32.503Z,33.30
2017-08-27T11:29:59.959Z,33.70
2017-08-27T11:32:27.451Z,32.80
2017-08-27T11:34:54.918Z,32.30
2017-08-27T11:37:22.386Z,32.40
2017-08-27T11:39:49.869Z,32.00
2017-08-27T11:42:17.327Z,32.00
2017-08-27T11:44:44.794Z,32.70
2017-08-27T11:47:12.265Z,32.00
2017-08-27T11:49:39.728Z,32.50
2017-08-27T11:52:07.187Z,32.80
2017-08-27T11:54:34.668Z,32.60
2017-08-27T11:57:02.908Z,32.10
2017-08-27T11:59:30.364Z,32.00
2017-08-27T12:01:57.839Z,32.20
2017-08-27T12:04:25.300Z,32.00
2017-08-27T12:06:52.797Z,31.80
2017-08-27T12:09:20.247Z,32.30
2017-08-27T12:11:47.734Z,32.50
2017-08-27T12:14:15.187Z,31.10
2017-08-27T12:16:42.695Z,30.80
2017-08-27T12:19:10.147Z,31.20
2017-08-27T12:21:37.607Z,31.70
2017-08-27T12:24:05.200Z,31.60
2017-08-27T12:26:32.652Z,31.90
2017-08-27T12:29:00.135Z,32.10
2017-08-27T12:31:27.587Z,32.10
2017-08-27T12:33:55.052Z,32.80
2017-08-27T12:36:22.523Z,32.90
2017-08-27T12:38:49.999Z,32.70
2017-08-27T12:41:18.263Z,32.70
2017-08-27T12:43:45.743Z,32.60
2017-08-27T12:46:13.221Z,32.60
2017-08-27T12:48:40.688Z,32.90
2017-08-27T12:51:08.178Z,33.10
2017-08-27T12:53:35.655Z,32.90
2017-08-27T12:56:03.119Z,32.50
2017-08-27T12:58:30.593Z,32.20
2017-08-27T13:00:58.076Z,31.50
2017-08-27T13:03:25.540Z,31.60
2017-08-27T13:05:53.009Z,31.80
2017-08-27T13:08:20.487Z,31.50
2017-08-27T13:10:47.949Z,31.70
2017-08-27T13:13:15.419Z,31.20
2017-08-27T13:15:43.654Z,32.00
2017-08-27T13:18:11.175Z,31.90
2017-08-27T13:20:38.642Z,32.00
2017-08-27T13:23:06.111Z,31.70
2017-08-27T13:25:33.621Z,30.50
2017-08-27T13:28:01.103Z,29.80
2017-08-27T13:30:28.558Z,29.70
2017-08-27T13:32:56.044Z,29.50
2017-08-27T13:35:23.513Z,29.50
2017-08-27T13:37:50.981Z,29.00
2017-08-27T13:40:18.434Z,28.50
2017-08-27T13:42:45.912Z,28.40
2017-08-27T13:45:14.132Z,28.60
2017-08-27T13:47:41.611Z,28.60
2017-08-27T13:50:09.073Z,28.40
2017-08-27T13:52:36.547Z,28.50
2017-08-27T13:55:04.763Z,28.60
2017-08-27T13:57:32.235Z,28.60
2017-08-27T13:59:59.701Z,28.00
2017-08-27T14:02:27.170Z,28.00
2017-08-27T14:04:54.639Z,27.80
2017-08-27T14:07:22.111Z,27.70
2017-08-27T14:09:49.571Z,27.50
2017-08-27T14:12:17.055Z,27.50
2017-08-27T14:14:44.523Z,27.80
2017-08-27T14:17:11.974Z,27.50
2017-08-27T14:19:39.446Z,27.70
2017-08-27T14:22:06.903Z,27.80
2017-08-27T14:24:34.388Z,28.00
2017-08-27T14:27:01.859Z,28.00
2017-08-27T14:29:29.339Z,28.00
2017-08-27T14:31:56.791Z,27.90
2017-08-27T14:34:24.283Z,27.90
2017-08-27T14:36:51.735Z,27.90
2017-08-27T14:39:19.208Z,27.90
2017-08-27T14:41:46.666Z,27.90
2017-08-27T14:44:14.145Z,27.80
2017-08-27T14:46:41.602Z,27.60
2017-08-27T14:49:09.056Z,27.50
2017-08-27T14:51:36.531Z,27.40
2017-08-27T14:54:04.763Z,27.30
2017-08-27T14:56:32.226Z,27.30
2017-08-27T14:58:59.686Z,27.30
2017-08-27T15:01:27.151Z,27.30
2017-08-27T15:03:54.615Z,27.40
2017-08-27T15:06:22.857Z,27.10
2017-08-27T15:08:50.328Z,27.00
2017-08-27T15:11:17.816Z,27.10
2017-08-27T15:13:45.277Z,27.10
2017-08-27T15:16:12.759Z,27.20
2017-08-27T15:18:40.235Z,27.00
2017-08-27T15:21:07.699Z,27.20
2017-08-27T15:23:35.178Z,27.30
2017-08-27T15:26:02.656Z,27.20
2017-08-27T15:28:30.259Z,27.10
2017-08-27T15:30:57.728Z,27.10
2017-08-27T15:33:25.198Z,27.00
2017-08-27T15:35:52.657Z,27.00
2017-08-27T15:38:20.110Z,26.70
2017-08-27T15:40:47.585Z,26.40
2017-08-27T15:43:15.042Z,26.10
2017-08-27T15:45:42.514Z,26.10
2017-08-27T15:48:10.744Z,26.30
2017-08-27T15:50:38.204Z,26.20
2017-08-27T15:53:05.676Z,26.20
2017-08-27T15:55:33.134Z,26.20
2017-08-27T15:58:00.612Z,26.20
2017-08-27T16:00:29.046Z,26.10
2017-08-27T16:02:56.523Z,26.00
2017-08-27T16:05:23.989Z,25.80
2017-08-27T16:07:51.460Z,25.80
2017-08-27T16:10:18.945Z,25.70
2017-08-27T16:12:46.400Z,25.80
2017-08-27T16:15:13.868Z,25.80
2017-08-27T16:17:41.326Z,25.80
2017-08-27T16:20:08.804Z,25.80
2017-08-27T16:22:36.276Z,25.80
2017-08-27T16:25:03.727Z,25.70
2017-08-27T16:27:31.200Z,25.60
2017-08-27T16:29:58.659Z,25.60
2017-08-27T16:32:26.131Z,25.60
2017-08-27T16:34:53.587Z,25.60
2017-08-27T16:37:21.060Z,25.60
2017-08-27T16:39:49.497Z,25.60
2017-08-27T16:42:16.963Z,25.40
2017-08-27T16:44:44.442Z,25.30
2017-08-27T16:49:43.643Z,25.00
2017-08-27T16:52:11.151Z,24.90
2017-08-27T16:54:38.638Z,24.90
2017-08-27T16:57:06.115Z,24.80
2017-08-27T16:59:34.342Z,24.60
2017-08-27T17:02:01.822Z,24.60
2017-08-27T17:04:29.292Z,24.60
2017-08-27T17:06:56.787Z,24.60
2017-08-27T17:09:24.268Z,24.50
2017-08-27T17:11:51.743Z,24.40
2017-08-27T17:14:19.259Z,24.40
2017-08-27T17:16:46.727Z,24.30
2017-08-27T17:19:14.206Z,24.30
2017-08-27T17:21:41.659Z,24.30
2017-08-27T17:24:09.133Z,24.30
2017-08-27T17:26:36.612Z,24.20
2017-08-27T17:29:04.085Z,24.10
2017-08-27T17:31:31.537Z,24.00
2017-08-27T17:33:59.006Z,23.90
2017-08-27T17:36:26.472Z,23.90
2017-08-27T17:38:53.943Z,23.80
2017-08-27T17:41:21.416Z,23.70
2017-08-27T17:43:48.883Z,23.70
2017-08-27T17:46:16.330Z,23.60
2017-08-27T17:48:43.803Z,23.60
2017-08-27T17:51:11.267Z,23.50
2017-08-27T17:53:39.488Z,23.40
2017-08-27T17:56:06.971Z,23.40
2017-08-27T17:58:34.441Z,23.40
2017-08-27T18:01:01.907Z,23.30
2017-08-27T18:03:29.405Z,23.20
2017-08-27T18:05:56.961Z,23.10
2017-08-27T18:08:24.426Z,23.00
2017-08-27T18:10:51.927Z,22.90
2017-08-27T18:13:19.406Z,22.80
2017-08-27T18:15:46.863Z,22.70
2017-08-27T18:18:14.351Z,22.60
2017-08-27T18:20:41.803Z,22.50
2017-08-27T18:23:09.292Z,22.50
2017-08-27T18:25:36.765Z,22.30
2017-08-27T18:28:04.246Z,22.30
2017-08-27T18:30:31.733Z,22.20
2017-08-27T18:32:59.287Z,22.10
2017-08-27T18:35:26.780Z,22.10
2017-08-27T18:37:55.012Z,22.00
2017-08-27T18:40:22.462Z,21.90
2017-08-27T18:42:49.939Z,21.90
2017-08-27T18:45:17.406Z,21.80
2017-08-27T18:47:44.947Z,21.70
2017-08-27T18:50:12.447Z,21.60
2017-08-27T18:52:39.916Z,21.50
2017-08-27T18:55:07.405Z,21.50
2017-08-27T18:57:34.867Z,21.40
2017-08-27T19:00:02.333Z,21.20
2017-08-27T19:02:29.797Z,21.20
2017-08-27T19:04:57.271Z,21.10
2017-08-27T19:07:24.739Z,21.00
2017-08-27T19:09:52.211Z,20.90
2017-08-27T19:12:19.694Z,20.90
2017-08-27T19:14:47.155Z,20.70
2017-08-27T19:17:14.728Z,20.60
2017-08-27T19:19:42.997Z,20.30
2017-08-27T19:22:10.443Z,20.30
2017-08-27T19:24:37.926Z,20.20
2017-08-27T19:27:05.428Z,20.10
2017-08-27T19:29:32.902Z,19.90
2017-08-27T19:32:00.371Z,19.80
2017-08-27T19:34:27.856Z,19.60
2017-08-27T19:36:55.401Z,19.60
2017-08-27T19:39:22.857Z,19.50
2017-08-27T19:41:50.347Z,19.50
2017-08-27T19:44:17.798Z,19.40
2017-08-27T19:46:45.297Z,19.30
2017-08-27T19:49:13.539Z,19.30
2017-08-27T19:51:41.007Z,19.30
2017-08-27T19:54:08.482Z,19.20
2017-08-27T19:56:35.950Z,19.10
2017-08-27T19:59:03.427Z,19.10
2017-08-27T20:01:30.903Z,19.00
2017-08-27T20:03:58.406Z,19.00
2017-08-27T20:06:25.874Z,19.00
2017-08-27T20:08:53.329Z,18.90
2017-08-27T20:11:20.803Z,18.80
2017-08-27T20:13:48.572Z,18.70
2017-08-27T20:16:16.054Z,18.70
2017-08-27T20:18:43.516Z,18.60
2017-08-27T20:21:10.978Z,18.60
2017-08-27T20:23:38.451Z,18.50
2017-08-27T20:26:05.916Z,18.60
2017-08-27T20:28:33.388Z,18.50
2017-08-27T20:31:00.876Z,18.50
2017-08-27T20:33:28.340Z,18.50
2017-08-27T20:35:55.806Z,18.40
2017-08-27T20:38:23.280Z,18.30
2017-08-27T20:40:50.764Z,18.30
2017-08-27T20:43:18.245Z,18.30
2017-08-27T20:45:45.704Z,18.20
2017-08-27T20:48:13.191Z,18.20
2017-08-27T20:50:40.648Z,18.20
2017-08-27T20:53:08.100Z,18.10
2017-08-27T20:55:35.568Z,18.10
2017-08-27T20:58:03.024Z,18.10
2017-08-27T21:00:30.551Z,18.00
2017-08-27T21:02:58.005Z,18.00
2017-08-27T21:05:25.464Z,18.10
2017-08-27T21:07:52.939Z,18.00
2017-08-27T21:10:20.477Z,17.90
2017-08-27T21:12:47.923Z,17.90
2017-08-27T21:15:15.410Z,17.90
2017-08-27T21:17:42.863Z,17.90
2017-08-27T21:20:10.358Z,17.90
2017-08-27T21:22:37.817Z,17.70
2017-08-27T21:25:05.278Z,17.60
2017-08-27T21:27:32.747Z,17.50
2017-08-27T21:30:00.203Z,17.40
2017-08-27T21:32:27.686Z,17.30
2017-08-27T21:34:55.159Z,17.40
2017-08-27T21:37:22.627Z,17.40
2017-08-27T21:39:50.102Z,17.40
2017-08-27T21:42:17.586Z,17.40
2017-08-27T21:44:45.806Z,17.40
2017-08-27T21:47:13.275Z,17.40
2017-08-27T21:49:40.747Z,17.40
2017-08-27T21:52:08.200Z,17.40
2017-08-27T21:54:35.674Z,17.40
2017-08-27T21:57:03.131Z,17.40
2017-08-27T21:59:30.625Z,17.30
2017-08-27T22:01:58.089Z,17.20
2017-08-27T22:04:25.555Z,17.20
2017-08-27T22:06:53.015Z,17.20
2017-08-27T22:09:20.487Z,17.30
2017-08-27T22:11:47.947Z,17.30
2017-08-27T22:14:15.415Z,17.20
2017-08-27T22:16:42.882Z,17.10
2017-08-27T22:19:10.346Z,17.10
2017-08-27T22:21:37.833Z,17.00
2017-08-27T22:24:05.297Z,17.00
2017-08-27T22:26:32.755Z,17.00
2017-08-27T22:29:00.214Z,16.90
2017-08-27T22:31:27.700Z,16.90
2017-08-27T22:33:55.183Z,16.90
2017-08-27T22:36:22.642Z,16.80
2017-08-27T22:38:50.149Z,16.80
2017-08-27T22:41:17.611Z,16.70
2017-08-27T22:43:45.080Z,16.60
2017-08-27T22:46:12.543Z,16.50
2017-08-27T22:48:39.998Z,16.50
2017-08-27T22:51:07.468Z,16.60
2017-08-27T22:53:35.686Z,16.50
2017-08-27T22:56:03.164Z,16.50
2017-08-27T22:58:30.619Z,16.40
2017-08-27T23:00:58.095Z,16.30
2017-08-27T23:03:25.555Z,16.30
2017-08-27T23:05:53.010Z,16.20
2017-08-27T23:08:20.484Z,16.20
2017-08-27T23:10:47.938Z,16.20
2017-08-27T23:13:15.406Z,16.10
2017-08-27T23:15:42.880Z,16.10
2017-08-27T23:18:10.355Z,16.20
2017-08-27T23:20:37.818Z,16.20
2017-08-27T23:23:05.282Z,16.00
2017-08-27T23:25:32.820Z,15.90
2017-08-27T23:28:00.281Z,15.90
2017-08-27T23:30:27.775Z,15.70
2017-08-27T23:32:55.227Z,15.70
2017-08-27T23:35:22.687Z,15.70
2017-08-27T23:37:50.159Z,15.60
2017-08-27T23:40:17.612Z,15.60
2017-08-27T23:42:45.095Z,15.50
2017-08-27T23:45:12.572Z,15.60
2017-08-27T23:47:40.132Z,15.70
2017-08-27T23:50:07.621Z,15.50
2017-08-27T23:52:35.079Z,15.50
2017-08-27T23:55:02.530Z,15.40
2017-08-27T23:57:30.003Z,15.40
2017-08-27T23:59:57.465Z,15.50
